createdAt,value
2018-04-22T00:00:37.850Z,1010.99
2018-04-22T00:01:37.876Z,1010.98
2018-04-22T00:02:37.893Z,1010.95
2018-04-22T00:03:37.916Z,1010.96
2018-04-22T00:04:37.931Z,1011.01
2018-04-22T00:05:37.960Z,1010.97
2018-04-22T00:06:37.979Z,1010.94
2018-04-22T00:07:37.994Z,1010.93
2018-04-22T00:08:38.015Z,1010.99
2018-04-22T00:09:38.045Z,1010.91
2018-04-22T00:10:38.065Z,1010.92
2018-04-22T00:11:38.080Z,1010.94
2018-04-22T00:12:38.104Z,1010.97
2018-04-22T00:13:38.127Z,1010.96
2018-04-22T00:14:38.140Z,1010.97
2018-04-22T00:15:38.169Z,1010.92
2018-04-22T00:16:38.191Z,1010.94
2018-04-22T00:17:38.203Z,1010.95
2018-04-22T00:18:38.232Z,1010.95
2018-04-22T00:19:38.245Z,1010.97
2018-04-22T00:20:38.273Z,1010.98
2018-04-22T00:21:38.290Z,1010.95
2018-04-22T00:22:38.313Z,1010.89
2018-04-22T00:23:38.335Z,1010.94
2018-04-22T00:24:38.357Z,1010.91
2018-04-22T00:25:38.370Z,1010.92
2018-04-22T00:26:38.400Z,1010.92
2018-04-22T00:27:38.412Z,1010.89
2018-04-22T00:28:38.435Z,1010.87
2018-04-22T00:29:38.461Z,1010.84
2018-04-22T00:30:38.486Z,1010.85
2018-04-22T00:31:38.496Z,1010.84
2018-04-22T00:32:38.516Z,1010.83
2018-04-22T00:33:38.544Z,1010.82
2018-04-22T00:34:38.556Z,1010.78
2018-04-22T00:35:38.586Z,1010.80
2018-04-22T00:36:38.604Z,1010.80
2018-04-22T00:37:38.621Z,1010.73
2018-04-22T00:38:38.647Z,1010.73
2018-04-22T00:39:38.667Z,1010.72
2018-04-22T00:40:38.690Z,1010.68
2018-04-22T00:41:38.702Z,1010.69
2018-04-22T00:42:38.732Z,1010.67
2018-04-22T00:43:38.749Z,1010.64
2018-04-22T00:44:38.768Z,1010.65
2018-04-22T00:45:38.789Z,1010.62
2018-04-22T00:46:38.810Z,1010.61
2018-04-22T00:47:38.834Z,1010.59
2018-04-22T00:48:38.848Z,1010.52
2018-04-22T00:49:38.878Z,1010.53
2018-04-22T00:50:38.891Z,1010.55
2018-04-22T00:51:38.918Z,1010.50
2018-04-22T00:52:38.943Z,1010.47
2018-04-22T00:53:38.953Z,1010.46
2018-04-22T00:54:38.985Z,1010.43
2018-04-22T00:55:38.995Z,1010.44
2018-04-22T00:56:39.021Z,1010.44
2018-04-22T00:57:39.038Z,1010.42
2018-04-22T00:58:39.063Z,1010.38
2018-04-22T00:59:39.080Z,1010.36
2018-04-22T01:00:39.103Z,1010.33
2018-04-22T01:01:39.127Z,1010.33
2018-04-22T01:02:39.139Z,1010.30
2018-04-22T01:03:39.169Z,1010.29
2018-04-22T01:04:39.191Z,1010.27
2018-04-22T01:05:39.202Z,1010.27
2018-04-22T01:06:39.224Z,1010.26
2018-04-22T01:07:39.244Z,1010.26
2018-04-22T01:08:39.269Z,1010.22
2018-04-22T01:09:39.286Z,1010.19
2018-04-22T01:10:39.310Z,1010.19
2018-04-22T01:11:39.329Z,1010.14
2018-04-22T01:12:39.353Z,1010.11
2018-04-22T01:13:39.372Z,1010.10
2018-04-22T01:14:39.399Z,1010.07
2018-04-22T01:15:39.407Z,1010.04
2018-04-22T01:16:39.431Z,1010.06
2018-04-22T01:17:39.449Z,1009.99
2018-04-22T01:18:39.473Z,1010.00
2018-04-22T01:19:39.490Z,1010.00
2018-04-22T01:20:39.513Z,1009.98
2018-04-22T01:21:39.544Z,1009.99
2018-04-22T01:22:39.559Z,1010.05
2018-04-22T01:23:39.576Z,1009.97
2018-04-22T01:24:39.597Z,1010.03
2018-04-22T01:25:39.621Z,1010.00
2018-04-22T01:26:39.645Z,1010.06
2018-04-22T01:27:39.657Z,1010.07
2018-04-22T01:28:39.677Z,1010.04
2018-04-22T01:29:39.706Z,1010.08
2018-04-22T01:30:39.724Z,1010.05
2018-04-22T01:31:39.743Z,1010.05
2018-04-22T01:32:39.760Z,1010.11
2018-04-22T01:33:39.789Z,1010.06
2018-04-22T01:34:39.811Z,1009.99
2018-04-22T01:35:39.830Z,1010.02
2018-04-22T01:36:39.851Z,1010.04
2018-04-22T01:37:39.870Z,1010.05
2018-04-22T01:38:39.886Z,1010.00
2018-04-22T01:39:39.912Z,1010.00
2018-04-22T01:40:39.925Z,1010.01
2018-04-22T01:41:39.955Z,1010.01
2018-04-22T01:42:39.967Z,1009.98
2018-04-22T01:43:39.996Z,1009.93
2018-04-22T01:44:40.011Z,1009.93
2018-04-22T01:45:40.034Z,1009.93
2018-04-22T01:46:40.057Z,1009.93
2018-04-22T01:47:40.075Z,1009.90
2018-04-22T01:48:40.092Z,1009.92
2018-04-22T01:49:40.110Z,1009.87
2018-04-22T01:50:40.133Z,1009.86
2018-04-22T01:51:40.156Z,1009.89
2018-04-22T01:52:40.171Z,1009.81
2018-04-22T01:53:40.201Z,1009.80
2018-04-22T01:54:40.213Z,1009.81
2018-04-22T01:55:40.236Z,1009.79
2018-04-22T01:56:40.261Z,1009.79
2018-04-22T01:57:40.273Z,1009.77
2018-04-22T01:58:40.295Z,1009.72
2018-04-22T01:59:40.320Z,1009.72
2018-04-22T02:00:40.339Z,1009.72
2018-04-22T02:01:40.357Z,1009.71
2018-04-22T02:02:40.375Z,1009.70
2018-04-22T02:03:40.404Z,1009.69
2018-04-22T02:04:40.420Z,1009.65
2018-04-22T02:05:40.443Z,1009.69
2018-04-22T02:06:40.455Z,1009.58
2018-04-22T02:07:40.484Z,1009.66
2018-04-22T02:08:40.504Z,1009.63
2018-04-22T02:09:40.516Z,1009.64
2018-04-22T02:10:40.541Z,1009.60
2018-04-22T02:11:40.559Z,1009.66
2018-04-22T02:12:40.579Z,1009.64
2018-04-22T02:13:40.610Z,1009.62
2018-04-22T02:14:40.617Z,1009.60
2018-04-22T02:15:40.646Z,1009.60
2018-04-22T02:16:40.661Z,1009.59
2018-04-22T02:17:40.692Z,1009.61
2018-04-22T02:18:40.701Z,1009.61
2018-04-22T02:19:40.724Z,1009.60
2018-04-22T02:20:40.743Z,1009.58
2018-04-22T02:21:40.760Z,1009.55
2018-04-22T02:22:40.782Z,1009.60
2018-04-22T02:23:40.804Z,1009.59
2018-04-22T02:24:40.820Z,1009.58
2018-04-22T02:25:40.849Z,1009.56
2018-04-22T02:26:40.867Z,1009.57
2018-04-22T02:27:40.885Z,1009.52
2018-04-22T02:28:40.909Z,1009.45
2018-04-22T02:29:40.921Z,1009.43
2018-04-22T02:30:40.951Z,1009.41
2018-04-22T02:31:40.964Z,1009.41
2018-04-22T02:32:40.986Z,1009.36
2018-04-22T02:33:41.004Z,1009.42
2018-04-22T02:34:41.035Z,1009.34
2018-04-22T02:35:41.045Z,1009.35
2018-04-22T02:36:41.068Z,1009.40
2018-04-22T02:37:41.092Z,1009.39
2018-04-22T02:38:41.110Z,1009.33
2018-04-22T02:39:41.133Z,1009.32
2018-04-22T02:40:41.152Z,1009.34
2018-04-22T02:41:41.164Z,1009.27
2018-04-22T02:42:41.186Z,1009.28
2018-04-22T02:43:41.212Z,1009.29
2018-04-22T02:44:41.224Z,1009.29
2018-04-22T02:45:41.253Z,1009.28
2018-04-22T02:46:41.270Z,1009.28
2018-04-22T02:47:41.288Z,1009.23
2018-04-22T02:48:41.308Z,1009.21
2018-04-22T02:49:41.331Z,1009.23
2018-04-22T02:50:41.353Z,1009.19
2018-04-22T02:51:41.365Z,1009.16
2018-04-22T02:52:41.394Z,1009.17
2018-04-22T02:53:41.406Z,1009.17
2018-04-22T02:54:41.429Z,1009.14
2018-04-22T02:55:41.453Z,1009.12
2018-04-22T02:56:41.480Z,1009.09
2018-04-22T02:57:41.489Z,1009.06
2018-04-22T02:58:41.506Z,1009.05
2018-04-22T02:59:41.533Z,1009.07
2018-04-22T03:00:41.555Z,1009.01
2018-04-22T03:01:41.567Z,1009.02
2018-04-22T03:02:41.595Z,1009.02
2018-04-22T03:03:41.607Z,1008.96
2018-04-22T03:04:41.633Z,1008.95
2018-04-22T03:05:41.651Z,1008.93
2018-04-22T03:06:41.674Z,1008.87
2018-04-22T03:07:41.691Z,1008.91
2018-04-22T03:08:41.708Z,1008.86
2018-04-22T03:09:41.736Z,1008.92
2018-04-22T03:10:41.752Z,1008.95
2018-04-22T03:11:41.772Z,1008.90
2018-04-22T03:12:41.795Z,1008.93
2018-04-22T03:13:41.814Z,1008.94
2018-04-22T03:14:41.837Z,1008.90
2018-04-22T03:15:41.854Z,1008.88
2018-04-22T03:16:41.869Z,1008.92
2018-04-22T03:17:41.896Z,1008.92
2018-04-22T03:18:41.910Z,1008.92
2018-04-22T03:19:41.938Z,1008.89
2018-04-22T03:20:41.951Z,1008.87
2018-04-22T03:21:41.995Z,1008.86
2018-04-22T03:22:41.992Z,1008.84
2018-04-22T03:23:42.016Z,1008.87
2018-04-22T03:24:42.037Z,1008.86
2018-04-22T03:25:42.050Z,1008.81
2018-04-22T03:26:42.077Z,1008.81
2018-04-22T03:27:42.089Z,1008.83
2018-04-22T03:28:42.116Z,1008.79
2018-04-22T03:29:42.134Z,1008.81
2018-04-22T03:30:42.155Z,1008.80
2018-04-22T03:31:42.176Z,1008.77
2018-04-22T03:32:42.198Z,1008.77
2018-04-22T03:33:42.211Z,1008.70
2018-04-22T03:34:42.245Z,1008.68
2018-04-22T03:35:42.256Z,1008.63
2018-04-22T03:36:42.277Z,1008.63
2018-04-22T03:37:42.295Z,1008.62
2018-04-22T03:38:42.312Z,1008.59
2018-04-22T03:39:42.341Z,1008.57
2018-04-22T03:40:42.359Z,1008.54
2018-04-22T03:41:42.375Z,1008.51
2018-04-22T03:42:42.399Z,1008.52
2018-04-22T03:43:42.417Z,1008.51
2018-04-22T03:44:42.441Z,1008.49
2018-04-22T03:45:42.454Z,1008.55
2018-04-22T03:46:42.483Z,1008.52
2018-04-22T03:47:42.495Z,1008.54
2018-04-22T03:48:42.519Z,1008.57
2018-04-22T03:49:42.536Z,1008.56
2018-04-22T03:50:42.555Z,1008.54
2018-04-22T03:51:42.584Z,1008.55
2018-04-22T03:52:42.603Z,1008.61
2018-04-22T03:53:42.615Z,1008.56
2018-04-22T03:54:42.638Z,1008.57
2018-04-22T03:55:42.707Z,1008.57
2018-04-22T03:56:42.683Z,1008.51
2018-04-22T03:57:42.695Z,1008.53
2018-04-22T03:58:42.717Z,1008.54
2018-04-22T03:59:42.741Z,1008.57
2018-04-22T04:00:42.804Z,1008.55
2018-04-22T04:01:42.778Z,1008.48
2018-04-22T04:02:42.797Z,1008.46
2018-04-22T04:03:42.819Z,1008.43
2018-04-22T04:04:42.837Z,1008.44
2018-04-22T04:05:42.863Z,1008.46
2018-04-22T04:06:42.886Z,1008.46
2018-04-22T04:07:42.896Z,1008.52
2018-04-22T04:08:42.915Z,1008.52
2018-04-22T04:09:42.944Z,1008.50
2018-04-22T04:10:42.962Z,1008.52
2018-04-22T04:11:42.979Z,1008.50
2018-04-22T04:12:42.995Z,1008.48
2018-04-22T04:13:43.024Z,1008.50
2018-04-22T04:14:43.045Z,1008.44
2018-04-22T04:15:43.059Z,1008.37
2018-04-22T04:16:43.082Z,1008.35
2018-04-22T04:17:43.112Z,1008.35
2018-04-22T04:18:43.125Z,1008.27
2018-04-22T04:19:43.143Z,1008.27
2018-04-22T04:20:43.161Z,1008.24
2018-04-22T04:21:43.180Z,1008.29
2018-04-22T04:22:43.202Z,1008.18
2018-04-22T04:23:43.221Z,1008.26
2018-04-22T04:24:43.245Z,1008.25
2018-04-22T04:25:43.258Z,1008.23
2018-04-22T04:26:43.291Z,1008.21
2018-04-22T04:27:43.298Z,1008.23
2018-04-22T04:28:43.329Z,1008.21
2018-04-22T04:29:43.338Z,1008.24
2018-04-22T04:30:43.368Z,1008.27
2018-04-22T04:31:43.379Z,1008.21
2018-04-22T04:32:43.403Z,1008.17
2018-04-22T04:33:43.422Z,1008.14
2018-04-22T04:34:43.445Z,1008.16
2018-04-22T04:35:43.462Z,1008.14
2018-04-22T04:36:43.488Z,1008.16
2018-04-22T04:37:43.500Z,1008.12
2018-04-22T04:38:43.528Z,1008.13
2018-04-22T04:39:43.539Z,1008.13
2018-04-22T04:40:43.565Z,1008.07
2018-04-22T04:41:43.582Z,1008.14
2018-04-22T04:42:43.608Z,1008.11
2018-04-22T04:43:43.622Z,1008.09
2018-04-22T04:44:43.645Z,1008.11
2018-04-22T04:45:43.664Z,1008.16
2018-04-22T04:46:43.689Z,1008.17
2018-04-22T04:47:43.704Z,1008.12
2018-04-22T04:48:43.729Z,1008.12
2018-04-22T04:49:43.741Z,1008.14
2018-04-22T04:50:43.769Z,1008.12
2018-04-22T04:51:43.781Z,1008.05
2018-04-22T04:52:43.809Z,1008.04
2018-04-22T04:53:43.822Z,1008.04
2018-04-22T04:54:43.845Z,1008.06
2018-04-22T04:55:43.869Z,1008.02
2018-04-22T04:56:43.933Z,1008.04
2018-04-22T04:57:43.912Z,1007.99
2018-04-22T04:58:43.927Z,1008.01
2018-04-22T04:59:43.958Z,1007.97
2018-04-22T05:00:43.966Z,1007.95
2018-04-22T05:01:43.992Z,1007.98
2018-04-22T05:02:44.005Z,1007.98
2018-04-22T05:03:44.036Z,1007.99
2018-04-22T05:04:44.048Z,1008.00
2018-04-22T05:05:44.072Z,1008.01
2018-04-22T05:06:44.090Z,1007.96
2018-04-22T05:07:44.112Z,1007.96
2018-04-22T05:08:44.127Z,1007.94
2018-04-22T05:09:44.155Z,1007.93
2018-04-22T05:10:44.173Z,1007.91
2018-04-22T05:11:44.196Z,1007.93
2018-04-22T05:12:44.223Z,1007.89
2018-04-22T05:13:44.235Z,1007.93
2018-04-22T05:14:44.257Z,1007.91
2018-04-22T05:15:44.277Z,1007.93
2018-04-22T05:16:44.299Z,1007.87
2018-04-22T05:17:44.311Z,1007.84
2018-04-22T05:18:44.367Z,1007.88
2018-04-22T05:19:44.356Z,1007.85
2018-04-22T05:20:44.378Z,1007.85
2018-04-22T05:21:44.396Z,1007.84
2018-04-22T05:22:44.419Z,1007.83
2018-04-22T05:23:44.437Z,1007.86
2018-04-22T05:24:44.464Z,1007.83
2018-04-22T05:25:44.476Z,1007.82
2018-04-22T05:26:44.498Z,1007.80
2018-04-22T05:27:44.517Z,1007.81
2018-04-22T05:28:44.537Z,1007.82
2018-04-22T05:29:44.560Z,1007.82
2018-04-22T05:30:44.584Z,1007.83
2018-04-22T05:31:44.603Z,1007.83
2018-04-22T05:32:44.620Z,1007.82
2018-04-22T05:33:44.649Z,1007.84
2018-04-22T05:34:44.661Z,1007.82
2018-04-22T05:35:44.691Z,1007.86
2018-04-22T05:36:44.704Z,1007.87
2018-04-22T05:37:44.727Z,1007.91
2018-04-22T05:38:44.745Z,1007.88
2018-04-22T05:39:44.770Z,1007.89
2018-04-22T05:40:44.783Z,1007.86
2018-04-22T05:41:44.818Z,1007.87
2018-04-22T05:42:44.865Z,1007.86
2018-04-22T05:43:44.849Z,1007.88
2018-04-22T05:44:44.875Z,1007.85
2018-04-22T05:45:44.898Z,1007.85
2018-04-22T05:46:44.916Z,1007.84
2018-04-22T05:47:44.935Z,1007.81
2018-04-22T05:48:44.962Z,1007.81
2018-04-22T05:49:44.971Z,1007.81
2018-04-22T05:50:44.994Z,1007.78
2018-04-22T05:51:45.022Z,1007.78
2018-04-22T05:52:45.038Z,1007.70
2018-04-22T05:53:45.056Z,1007.69
2018-04-22T05:54:45.075Z,1007.69
2018-04-22T05:55:45.104Z,1007.69
2018-04-22T05:56:45.128Z,1007.64
2018-04-22T05:57:45.136Z,1007.66
2018-04-22T05:58:45.161Z,1007.66
2018-04-22T05:59:45.179Z,1007.61
2018-04-22T06:00:45.198Z,1007.68
2018-04-22T06:01:45.221Z,1007.68
2018-04-22T06:02:45.247Z,1007.63
2018-04-22T06:03:45.265Z,1007.62
2018-04-22T06:04:45.288Z,1007.63
2018-04-22T06:05:45.306Z,1007.60
2018-04-22T06:06:45.329Z,1007.58
2018-04-22T06:07:45.349Z,1007.56
2018-04-22T06:08:45.375Z,1007.54
2018-04-22T06:09:45.388Z,1007.60
2018-04-22T06:10:45.417Z,1007.62
2018-04-22T06:11:45.431Z,1007.55
2018-04-22T06:12:45.450Z,1007.62
2018-04-22T06:13:45.482Z,1007.56
2018-04-22T06:14:45.500Z,1007.61
2018-04-22T06:15:45.527Z,1007.66
2018-04-22T06:16:45.543Z,1007.63
2018-04-22T06:17:45.563Z,1007.62
2018-04-22T06:18:45.581Z,1007.66
2018-04-22T06:19:45.605Z,1007.61
2018-04-22T06:20:45.623Z,1007.65
2018-04-22T06:21:45.647Z,1007.60
2018-04-22T06:22:45.673Z,1007.61
2018-04-22T06:23:45.685Z,1007.66
2018-04-22T06:24:45.708Z,1007.53
2018-04-22T06:25:45.734Z,1007.57
2018-04-22T06:26:45.753Z,1007.51
2018-04-22T06:27:45.773Z,1007.60
2018-04-22T06:28:45.798Z,1007.58
2018-04-22T06:29:45.814Z,1007.54
2018-04-22T06:30:45.837Z,1007.46
2018-04-22T06:31:45.857Z,1007.55
2018-04-22T06:32:45.877Z,1007.50
2018-04-22T06:33:45.902Z,1007.49
2018-04-22T06:34:45.927Z,1007.45
2018-04-22T06:35:45.945Z,1007.44
2018-04-22T06:36:45.970Z,1007.42
2018-04-22T06:37:45.988Z,1007.46
2018-04-22T06:38:46.015Z,1007.39
2018-04-22T06:39:46.040Z,1007.41
2018-04-22T06:40:46.062Z,1007.58
2018-04-22T06:41:46.076Z,1007.68
2018-04-22T06:42:46.107Z,1007.80
2018-04-22T06:43:46.121Z,1008.02
2018-04-22T06:44:46.142Z,1008.34
2018-04-22T06:45:46.173Z,1008.50
2018-04-22T06:46:46.188Z,1008.47
2018-04-22T06:47:46.215Z,1008.38
2018-04-22T06:48:46.242Z,1008.37
2018-04-22T06:49:46.264Z,1008.50
2018-04-22T06:50:46.289Z,1008.79
2018-04-22T06:51:46.304Z,1008.98
2018-04-22T06:52:46.335Z,1009.24
2018-04-22T06:53:46.350Z,1009.44
2018-04-22T06:54:46.384Z,1009.38
2018-04-22T06:55:46.398Z,1008.37
2018-04-22T06:56:46.427Z,1006.98
2018-04-22T06:57:46.448Z,1007.24
2018-04-22T06:58:46.508Z,1006.96
2018-04-22T06:59:46.498Z,1007.01
2018-04-22T07:00:46.523Z,1006.83
2018-04-22T07:01:46.539Z,1006.82
2018-04-22T07:02:46.572Z,1006.81
2018-04-22T07:03:46.587Z,1006.84
2018-04-22T07:04:46.616Z,1006.79
2018-04-22T07:05:46.641Z,1006.83
2018-04-22T07:06:46.665Z,1006.89
2018-04-22T07:07:46.705Z,1007.10
2018-04-22T07:08:46.709Z,1008.09
2018-04-22T07:09:46.738Z,1008.01
2018-04-22T07:10:46.758Z,1008.01
2018-04-22T07:11:46.780Z,1008.25
2018-04-22T07:12:46.808Z,1008.13
2018-04-22T07:13:46.821Z,1007.79
2018-04-22T07:14:46.856Z,1007.86
2018-04-22T07:15:46.869Z,1008.03
2018-04-22T07:16:46.899Z,1007.88
2018-04-22T07:17:46.920Z,1007.71
2018-04-22T07:18:46.947Z,1007.54
2018-04-22T07:19:46.969Z,1007.53
2018-04-22T07:20:46.998Z,1007.48
2018-04-22T07:21:47.014Z,1007.51
2018-04-22T07:22:47.047Z,1007.61
2018-04-22T07:23:47.064Z,1007.55
2018-04-22T07:24:47.095Z,1007.42
2018-04-22T07:25:47.113Z,1007.38
2018-04-22T07:26:47.146Z,1007.46
2018-04-22T07:27:47.163Z,1007.46
2018-04-22T07:28:47.194Z,1007.50
2018-04-22T07:29:47.220Z,1007.47
2018-04-22T07:30:47.245Z,1007.53
2018-04-22T07:31:47.268Z,1007.50
2018-04-22T07:32:47.299Z,1007.42
2018-04-22T07:33:47.316Z,1007.42
2018-04-22T07:34:47.344Z,1007.40
2018-04-22T07:35:47.372Z,1007.41
2018-04-22T07:36:47.397Z,1007.37
2018-04-22T07:37:47.427Z,1007.28
2018-04-22T07:38:47.451Z,1007.23
2018-04-22T07:39:47.474Z,1007.31
2018-04-22T07:40:47.503Z,1007.34
2018-04-22T07:41:47.529Z,1007.35
2018-04-22T07:42:47.552Z,1007.41
2018-04-22T07:43:47.592Z,1007.33
2018-04-22T07:44:47.611Z,1007.41
2018-04-22T07:45:47.629Z,1007.17
2018-04-22T07:46:47.658Z,1007.41
2018-04-22T07:47:47.689Z,1007.39
2018-04-22T07:48:47.712Z,1007.24
2018-04-22T07:49:47.744Z,1007.15
2018-04-22T07:50:47.769Z,1007.11
2018-04-22T07:51:47.791Z,1007.22
2018-04-22T07:52:47.820Z,1007.18
2018-04-22T07:53:47.845Z,1007.21
2018-04-22T07:54:47.875Z,1007.20
2018-04-22T07:55:47.913Z,1007.20
2018-04-22T07:56:47.930Z,1007.21
2018-04-22T07:57:47.959Z,1007.20
2018-04-22T07:58:47.990Z,1007.24
2018-04-22T07:59:48.012Z,1007.25
2018-04-22T08:00:48.036Z,1007.14
2018-04-22T08:01:48.072Z,1007.06
2018-04-22T08:02:48.097Z,1007.13
2018-04-22T08:03:48.121Z,1007.11
2018-04-22T08:04:48.155Z,1007.06
2018-04-22T08:05:48.175Z,1007.10
2018-04-22T08:06:48.234Z,1007.11
2018-04-22T08:07:48.232Z,1007.14
2018-04-22T08:08:48.265Z,1007.12
2018-04-22T08:09:48.291Z,1007.15
2018-04-22T08:10:48.323Z,1007.14
2018-04-22T08:11:48.350Z,1007.13
2018-04-22T08:12:48.371Z,1007.13
2018-04-22T08:13:48.407Z,1007.12
2018-04-22T08:14:48.432Z,1007.11
2018-04-22T08:15:48.468Z,1007.10
2018-04-22T08:16:48.486Z,1007.09
2018-04-22T08:17:48.519Z,1007.18
2018-04-22T08:18:48.545Z,1007.28
2018-04-22T08:19:48.576Z,1007.32
2018-04-22T08:20:48.603Z,1007.54
2018-04-22T08:21:48.630Z,1007.54
2018-04-22T08:22:48.661Z,1007.58
2018-04-22T08:23:48.688Z,1007.56
2018-04-22T08:24:48.720Z,1007.50
2018-04-22T08:25:48.746Z,1007.57
2018-04-22T08:26:48.779Z,1007.66
2018-04-22T08:27:48.805Z,1007.46
2018-04-22T08:28:48.838Z,1007.57
2018-04-22T08:29:48.860Z,1007.60
2018-04-22T08:30:48.892Z,1007.54
2018-04-22T08:31:48.922Z,1007.51
2018-04-22T08:32:48.952Z,1007.54
2018-04-22T08:33:48.982Z,1007.53
2018-04-22T08:34:49.005Z,1007.51
2018-04-22T08:35:49.044Z,1007.53
2018-04-22T08:36:49.074Z,1007.48
2018-04-22T08:37:49.094Z,1007.43
2018-04-22T08:38:49.126Z,1007.45
2018-04-22T08:39:49.203Z,1007.40
2018-04-22T08:40:49.188Z,1007.43
2018-04-22T08:41:49.226Z,1007.37
2018-04-22T08:42:49.250Z,1007.34
2018-04-22T08:43:49.276Z,1007.42
2018-04-22T08:44:49.305Z,1007.32
2018-04-22T08:45:49.344Z,1007.36
2018-04-22T08:46:49.371Z,1007.44
2018-04-22T08:47:49.399Z,1007.42
2018-04-22T08:48:49.429Z,1007.38
2018-04-22T08:49:49.464Z,1007.36
2018-04-22T08:50:49.498Z,1007.38
2018-04-22T08:51:49.521Z,1007.35
2018-04-22T08:52:49.552Z,1007.32
2018-04-22T08:53:49.591Z,1007.34
2018-04-22T08:54:49.620Z,1007.28
2018-04-22T08:55:49.652Z,1007.26
2018-04-22T08:56:49.677Z,1007.38
2018-04-22T08:57:49.703Z,1007.35
2018-04-22T08:58:49.738Z,1007.32
2018-04-22T08:59:49.773Z,1007.22
2018-04-22T09:00:49.812Z,1007.21
2018-04-22T09:01:49.832Z,1007.20
2018-04-22T09:02:49.872Z,1007.22
2018-04-22T09:03:49.891Z,1007.20
2018-04-22T09:04:49.929Z,1007.15
2018-04-22T09:05:49.958Z,1007.17
2018-04-22T09:06:49.992Z,1007.15
2018-04-22T09:07:50.021Z,1007.12
2018-04-22T09:08:50.055Z,1007.13
2018-04-22T09:09:50.088Z,1007.13
2018-04-22T09:10:50.134Z,1007.13
2018-04-22T09:11:50.149Z,1007.11
2018-04-22T09:12:50.179Z,1007.09
2018-04-22T09:13:50.208Z,1007.00
2018-04-22T09:14:50.248Z,1007.02
2018-04-22T09:15:50.273Z,1007.00
2018-04-22T09:16:50.311Z,1006.98
2018-04-22T09:17:50.339Z,1006.95
2018-04-22T09:18:50.376Z,1006.92
2018-04-22T09:19:50.399Z,1006.89
2018-04-22T09:20:50.439Z,1006.94
2018-04-22T09:21:50.466Z,1006.88
2018-04-22T09:22:50.499Z,1006.92
2018-04-22T09:23:50.529Z,1006.93
2018-04-22T09:24:50.560Z,1006.89
2018-04-22T09:25:50.595Z,1006.94
2018-04-22T09:26:50.625Z,1006.84
2018-04-22T09:27:50.656Z,1006.93
2018-04-22T09:28:50.690Z,1006.95
2018-04-22T09:29:50.725Z,1006.93
2018-04-22T09:30:50.756Z,1006.91
2018-04-22T09:31:50.782Z,1006.90
2018-04-22T09:32:50.817Z,1006.90
2018-04-22T09:33:50.847Z,1006.77
2018-04-22T09:34:50.884Z,1006.96
2018-04-22T09:35:50.911Z,1006.94
2018-04-22T09:36:50.949Z,1006.95
2018-04-22T09:37:50.972Z,1007.02
2018-04-22T09:38:51.013Z,1007.03
2018-04-22T09:39:51.036Z,1007.04
2018-04-22T09:40:51.075Z,1007.08
2018-04-22T09:41:51.103Z,1007.10
2018-04-22T09:42:51.136Z,1007.12
2018-04-22T09:43:51.167Z,1007.11
2018-04-22T09:44:51.200Z,1007.13
2018-04-22T09:45:51.235Z,1007.09
2018-04-22T09:46:51.274Z,1007.07
2018-04-22T09:47:51.294Z,1007.04
2018-04-22T09:48:51.335Z,1007.05
2018-04-22T09:49:51.401Z,1007.08
2018-04-22T09:50:51.409Z,1007.11
2018-04-22T09:51:51.424Z,1007.03
2018-04-22T09:52:51.465Z,1007.08
2018-04-22T09:53:51.493Z,1007.01
2018-04-22T09:54:51.528Z,1007.00
2018-04-22T09:55:51.558Z,1006.98
2018-04-22T09:56:51.592Z,1006.96
2018-04-22T09:57:51.627Z,1006.94
2018-04-22T09:58:51.663Z,1006.95
2018-04-22T09:59:51.693Z,1006.91
2018-04-22T10:00:51.724Z,1006.89
2018-04-22T10:01:51.761Z,1006.84
2018-04-22T10:02:51.785Z,1006.79
2018-04-22T10:03:51.831Z,1006.78
2018-04-22T10:04:51.857Z,1006.76
2018-04-22T10:05:51.892Z,1006.70
2018-04-22T10:06:51.922Z,1006.71
2018-04-22T10:07:51.953Z,1006.78
2018-04-22T10:08:51.986Z,1006.72
2018-04-22T10:09:52.026Z,1006.73
2018-04-22T10:10:52.064Z,1006.73
2018-04-22T10:11:52.081Z,1006.69
2018-04-22T10:12:52.123Z,1006.66
2018-04-22T10:13:52.151Z,1006.67
2018-04-22T10:14:52.180Z,1006.65
2018-04-22T10:15:52.222Z,1006.59
2018-04-22T10:16:52.248Z,1006.59
2018-04-22T10:17:52.278Z,1006.59
2018-04-22T10:18:52.314Z,1006.56
2018-04-22T10:19:52.353Z,1006.56
2018-04-22T10:20:52.381Z,1006.51
2018-04-22T10:21:52.437Z,1006.52
2018-04-22T10:22:52.446Z,1006.47
2018-04-22T10:23:52.482Z,1006.47
2018-04-22T10:24:52.510Z,1006.47
2018-04-22T10:25:52.550Z,1006.48
2018-04-22T10:26:52.575Z,1006.47
2018-04-22T10:27:52.616Z,1006.39
2018-04-22T10:28:52.643Z,1006.43
2018-04-22T10:29:52.680Z,1006.35
2018-04-22T10:30:52.709Z,1006.36
2018-04-22T10:31:52.746Z,1006.39
2018-04-22T10:32:52.777Z,1006.37
2018-04-22T10:33:52.812Z,1006.44
2018-04-22T10:34:52.839Z,1006.41
2018-04-22T10:35:52.875Z,1006.39
2018-04-22T10:36:52.913Z,1006.38
2018-04-22T10:37:52.940Z,1006.37
2018-04-22T10:38:52.970Z,1006.30
2018-04-22T10:39:53.015Z,1006.31
2018-04-22T10:40:53.045Z,1006.26
2018-04-22T10:41:53.072Z,1006.24
2018-04-22T10:42:53.104Z,1006.26
2018-04-22T10:43:53.143Z,1006.24
2018-04-22T10:44:53.174Z,1006.24
2018-04-22T10:45:53.205Z,1006.28
2018-04-22T10:46:53.235Z,1006.22
2018-04-22T10:47:53.271Z,1006.24
2018-04-22T10:48:53.301Z,1006.24
2018-04-22T10:49:53.339Z,1006.25
2018-04-22T10:50:53.383Z,1006.23
2018-04-22T10:51:53.401Z,1006.20
2018-04-22T10:52:53.445Z,1006.18
2018-04-22T10:53:53.472Z,1006.19
2018-04-22T10:54:53.505Z,1006.20
2018-04-22T10:55:53.540Z,1006.25
2018-04-22T10:56:53.567Z,1006.25
2018-04-22T10:57:53.646Z,1006.17
2018-04-22T10:58:53.635Z,1006.18
2018-04-22T10:59:53.739Z,1006.16
2018-04-22T11:00:53.704Z,1006.21
2018-04-22T11:01:53.741Z,1006.18
2018-04-22T11:02:53.777Z,1006.11
2018-04-22T11:03:53.809Z,1006.12
2018-04-22T11:04:53.841Z,1006.14
2018-04-22T11:05:53.877Z,1006.05
2018-04-22T11:06:53.906Z,1005.95
2018-04-22T11:07:53.945Z,1005.92
2018-04-22T11:08:53.976Z,1005.94
2018-04-22T11:09:54.010Z,1005.95
2018-04-22T11:10:54.042Z,1005.97
2018-04-22T11:11:54.072Z,1005.85
2018-04-22T11:12:54.110Z,1005.85
2018-04-22T11:13:54.137Z,1005.84
2018-04-22T11:14:54.181Z,1005.74
2018-04-22T11:15:54.203Z,1005.78
2018-04-22T11:16:54.241Z,1005.73
2018-04-22T11:17:54.271Z,1005.68
2018-04-22T11:18:54.302Z,1005.62
2018-04-22T11:19:54.344Z,1005.68
2018-04-22T11:20:54.375Z,1005.59
2018-04-22T11:21:54.405Z,1005.60
2018-04-22T11:22:54.441Z,1005.61
2018-04-22T11:23:54.467Z,1005.66
2018-04-22T11:24:54.504Z,1005.62
2018-04-22T11:25:54.537Z,1005.53
2018-04-22T11:26:54.572Z,1005.58
2018-04-22T11:27:54.632Z,1005.55
2018-04-22T11:28:54.628Z,1005.50
2018-04-22T11:29:54.669Z,1005.46
2018-04-22T11:30:54.697Z,1005.49
2018-04-22T11:31:54.735Z,1005.43
2018-04-22T11:32:54.760Z,1005.51
2018-04-22T11:33:54.795Z,1005.58
2018-04-22T11:34:54.829Z,1005.69
2018-04-22T11:35:54.853Z,1005.65
2018-04-22T11:36:54.884Z,1005.69
2018-04-22T11:37:54.925Z,1005.71
2018-04-22T11:38:54.948Z,1005.54
2018-04-22T11:39:54.988Z,1005.62
2018-04-22T11:40:55.019Z,1005.63
2018-04-22T11:41:55.046Z,1005.64
2018-04-22T11:42:55.081Z,1005.66
2018-04-22T11:43:55.111Z,1005.81
2018-04-22T11:44:55.149Z,1005.90
2018-04-22T11:45:55.180Z,1005.88
2018-04-22T11:46:55.211Z,1005.84
2018-04-22T11:47:55.235Z,1005.62
2018-04-22T11:48:55.272Z,1005.62
2018-04-22T11:49:55.306Z,1005.53
2018-04-22T11:50:55.337Z,1005.62
2018-04-22T11:51:55.366Z,1005.55
2018-04-22T11:52:55.403Z,1005.58
2018-04-22T11:53:55.427Z,1005.70
2018-04-22T11:54:55.470Z,1005.69
2018-04-22T11:55:55.493Z,1005.50
2018-04-22T11:56:55.526Z,1005.64
2018-04-22T11:57:55.592Z,1005.19
2018-04-22T11:58:55.593Z,1005.31
2018-04-22T11:59:55.666Z,1005.33
2018-04-22T12:00:55.651Z,1005.31
2018-04-22T12:01:55.698Z,1005.26
2018-04-22T12:02:55.717Z,1005.13
2018-04-22T12:03:55.758Z,1005.08
2018-04-22T12:04:55.796Z,1005.26
2018-04-22T12:05:55.844Z,1005.42